Observation data for Spur on 12/08/2018      Previous  Date       Current Mesonet Observations  Soil Data  Daily Summary Page  Observations in Plain Language
KSP1 080600Z 03008KT 00/M00 A3027 RMK A01 T00021003  RH  098%=      5-min Rain = 0.01
KSP1 080605Z 03010KT 00/M00 A3026 RMK A01 T00011003  RH  098%=      5-min Rain = 0.01
KSP1 080610Z 03009KT 00/M00 A3026 RMK A01 T00011003  RH  098%=      5-min Rain = 0
KSP1 080615Z 03010KT 00/M00 A3026 RMK A01 T00011003  RH  098%=      5-min Rain = 0
KSP1 080620Z 02010KT 00/M00 A3026 RMK A01 T00011004  RH  098%=      5-min Rain = 0.01
KSP1 080625Z 02009KT 00/M00 A3026 RMK A01 T00011003  RH  098%=      5-min Rain = 0
KSP1 080630Z 02008KT 00/M00 A3027 RMK A01 T00011003  RH  098%=      5-min Rain = 0
KSP1 080635Z 02007KT 00/M00 A3027 RMK A01 T00021003  RH  098%=      5-min Rain = 0.01
KSP1 080640Z 02009KT 00/M00 A3027 RMK A01 T00011003  RH  098%=      5-min Rain = 0
KSP1 080645Z 02008KT 00/M00 A3027 RMK A01 T00011003  RH  098%=      5-min Rain = 0.01
KSP1 080650Z 02007KT 00/M00 A3027 RMK A01 T00021003  RH  098%=      5-min Rain = 0
KSP1 080655Z 02008KT 00/M00 A3027 RMK A01 T00021002  RH  098%=      5-min Rain = 0.01
KSP1 080700Z 02009KT 00/M00 A3027 RMK A01 T00021002  RH  098%=      5-min Rain = 0.01
KSP1 080705Z 02009G14KT 00/M00 A3027 RMK A01 T00021002  RH  098%=      5-min Rain = 0.01
KSP1 080710Z 03008KT 00/M00 A3027 RMK A01 T00031002  RH  098%=      5-min Rain = 0
KSP1 080715Z 03008KT 00/M00 A3027 RMK A01 T00021002  RH  098%=      5-min Rain = 0
KSP1 080720Z 03006G12KT 00/M00 A3027 RMK A01 T00021003  RH  098%=      5-min Rain = 0
KSP1 080725Z 03008KT 00/M00 A3027 RMK A01 T00011003  RH  098%=      5-min Rain = 0.01
KSP1 080730Z 03008KT 00/M00 A3027 RMK A01 T00011004  RH  098%=      5-min Rain = 0
KSP1 080735Z 03008KT 00/00 A3027 RMK A01 T000000-4  RH  098%=      5-min Rain = 0.01
KSP1 080740Z 03008KT 00/00 A3027 RMK A01 T000000-4  RH  098%=      5-min Rain = 0
KSP1 080745Z 03007KT 00/M00 A3027 RMK A01 T00011004  RH  098%=      5-min Rain = 0
KSP1 080750Z 03008KT 00/M00 A3027 RMK A01 T00011004  RH  098%=      5-min Rain = 0.01
KSP1 080755Z 03008KT 00/M00 A3026 RMK A01 T00011004  RH  098%=      5-min Rain = 0
KSP1 080800Z 02007KT 00/M00 A3026 RMK A01 T00011003  RH  098%=      5-min Rain = 0
KSP1 080805Z 02007KT 00/M00 A3026 RMK A01 T00011003  RH  098%=      5-min Rain = 0
KSP1 080810Z 02009KT 00/M00 A3026 RMK A01 T00011003  RH  098%=      5-min Rain = 0
KSP1 080815Z 02009KT 00/M00 A3026 RMK A01 T00011003  RH  098%=      5-min Rain = 0
KSP1 080820Z 02009G14KT 00/M00 A3026 RMK A01 T00011003  RH  098%=      5-min Rain = 0.01
KSP1 080825Z 02009KT 00/M00 A3026 RMK A01 T00011004  RH  098%=      5-min Rain = 0
KSP1 080830Z 02009KT 00/M00 A3026 RMK A01 T00011004  RH  098%=      5-min Rain = 0.01
KSP1 080835Z 02008KT 00/M00 A3026 RMK A01 T00011004  RH  098%=      5-min Rain = 0
KSP1 080840Z 02009KT 00/M00 A3026 RMK A01 T00011004  RH  098%=      5-min Rain = 0.01
KSP1 080845Z 01009KT 00/M00 A3026 RMK A01 T00011004  RH  098%=      5-min Rain = 0
KSP1 080850Z 02010KT 00/01 A3026 RMK A01 T00-000-5  RH  098%=      5-min Rain = 0
KSP1 080855Z 02009KT M00/M01 A3026 RMK A01 T10011006  RH  098%=      5-min Rain = 0
KSP1 080900Z 02009KT M00/M01 A3026 RMK A01 T10011006  RH  098%=      5-min Rain = 0
KSP1 080905Z 02009KT M00/M01 A3026 RMK A01 T10011006  RH  098%=      5-min Rain = 0
KSP1 080910Z 02009KT M00/M01 A3026 RMK A01 T10011006  RH  098%=      5-min Rain = 0
KSP1 080915Z 02010KT M00/M01 A3025 RMK A01 T10021007  RH  097%=      5-min Rain = 0
KSP1 080920Z 02009KT M00/M01 A3025 RMK A01 T10021007  RH  097%=      5-min Rain = 0
KSP1 080925Z 02010KT M00/M01 A3025 RMK A01 T10021007  RH  097%=      5-min Rain = 0
KSP1 080930Z 02010KT M00/M01 A3025 RMK A01 T10021008  RH  097%=      5-min Rain = 0
KSP1 080935Z 02011KT M00/M01 A3025 RMK A01 T10021008  RH  097%=      5-min Rain = 0
KSP1 080940Z 02012KT M00/M01 A3025 RMK A01 T10031008  RH  097%=      5-min Rain = 0
KSP1 080945Z 02011KT M00/M01 A3025 RMK A01 T10031009  RH  097%=      5-min Rain = 0
KSP1 080950Z 02011G16KT M00/M01 A3025 RMK A01 T10031009  RH  096%=      5-min Rain = 0
KSP1 080955Z 02013KT M00/M01 A3024 RMK A01 T10031010  RH  096%=      5-min Rain = 0
KSP1 081000Z 02012KT M00/M01 A3024 RMK A01 T10041010  RH  096%=      5-min Rain = 0
KSP1 081005Z 02013G18KT M00/M01 A3024 RMK A01 T10041011  RH  096%=      5-min Rain = 0
KSP1 081010Z 02012G17KT M00/M01 A3024 RMK A01 T10041011  RH  096%=      5-min Rain = 0
KSP1 081015Z 02013KT M00/M01 A3024 RMK A01 T10041011  RH  096%=      5-min Rain = 0
KSP1 081020Z 02011KT M00/M01 A3024 RMK A01 T10041011  RH  096%=      5-min Rain = 0
KSP1 081025Z 02010KT M00/M01 A3024 RMK A01 T10041011  RH  096%=      5-min Rain = 0
KSP1 081030Z 03010KT M00/M01 A3024 RMK A01 T10041011  RH  096%=      5-min Rain = 0
KSP1 081035Z 02009KT M00/M01 A3024 RMK A01 T10041010  RH  096%=      5-min Rain = 0
KSP1 081040Z 02012KT M00/M01 A3024 RMK A01 T10041011  RH  096%=      5-min Rain = 0
KSP1 081045Z 02010KT M00/M01 A3024 RMK A01 T10041010  RH  096%=      5-min Rain = 0
KSP1 081050Z 02009G14KT M00/M01 A3024 RMK A01 T10041011  RH  096%=      5-min Rain = 0
KSP1 081055Z 02009KT M00/M01 A3024 RMK A01 T10041011  RH  096%=      5-min Rain = 0
KSP1 081100Z 02010G15KT M00/M01 A3024 RMK A01 T10041011  RH  096%=      5-min Rain = 0
KSP1 081105Z 03010KT M00/M01 A3024 RMK A01 T10041011  RH  096%=      5-min Rain = 0
KSP1 081110Z 03010KT M00/M01 A3024 RMK A01 T10041011  RH  096%=      5-min Rain = 0
KSP1 081115Z 02009KT M00/M01 A3024 RMK A01 T10041011  RH  096%=      5-min Rain = 0
KSP1 081120Z 02009KT M01/M01 A3024 RMK A01 T10051011  RH  096%=      5-min Rain = 0
KSP1 081125Z 02010KT M01/M01 A3024 RMK A01 T10051012  RH  096%=      5-min Rain = 0
KSP1 081130Z 03009KT M01/M01 A3025 RMK A01 T10051012  RH  096%=      5-min Rain = 0
KSP1 081135Z 03008KT M01/M01 A3025 RMK A01 T10061012  RH  097%=      5-min Rain = 0
KSP1 081140Z 03009KT M01/M01 A3025 RMK A01 T10061012  RH  097%=      5-min Rain = 0
KSP1 081145Z 02008KT M01/M01 A3025 RMK A01 T10061012  RH  097%=      5-min Rain = 0
KSP1 081150Z 03008KT M01/M01 A3025 RMK A01 T10071012  RH  097%=      5-min Rain = 0
KSP1 081155Z 03010G15KT M01/M01 A3025 RMK A01 T10081012  RH  098%=      5-min Rain = 0
KSP1 081200Z 02011KT M01/M01 A3025 RMK A01 T10081013  RH  098%=      5-min Rain = 0
KSP1 081205Z 02011KT M01/M01 A3026 RMK A01 T10091013  RH  098%=      5-min Rain = 0
KSP1 081210Z 02009G15KT M01/M01 A3026 RMK A01 T10091013  RH  098%=      5-min Rain = 0
KSP1 081215Z 02010KT M01/M01 A3026 RMK A01 T10091013  RH  098%=      5-min Rain = 0
KSP1 081220Z 02010G15KT M01/M01 A3026 RMK A01 T10101013  RH  099%=      5-min Rain = 0
KSP1 081225Z 02010G15KT M01/M01 A3026 RMK A01 T10111014  RH  099%=      5-min Rain = 0
KSP1 081230Z 02009KT M01/M01 A3026 RMK A01 T10111014  RH  099%=      5-min Rain = 0
KSP1 081235Z 02010KT M01/M01 A3026 RMK A01 T10121014  RH  099%=      5-min Rain = 0
KSP1 081240Z 03009KT M01/M01 A3027 RMK A01 T10121014  RH  099%=      5-min Rain = 0
KSP1 081245Z 03008KT M01/M02 A3027 RMK A01 T10121015  RH  099%=      5-min Rain = 0
KSP1 081250Z 02007KT M01/M02 A3027 RMK A01 T10121015  RH  099%=      5-min Rain = 0
KSP1 081255Z 01006KT M01/M02 A3028 RMK A01 T10121015  RH  099%=      5-min Rain = 0
KSP1 081300Z 01008KT M01/M01 A3028 RMK A01 T10121014  RH  099%=      5-min Rain = 0
KSP1 081305Z 02008KT M01/M02 A3028 RMK A01 T10131015  RH  099%=      5-min Rain = 0
KSP1 081310Z 01008KT M01/M02 A3028 RMK A01 T10131015  RH  099%=      5-min Rain = 0
KSP1 081315Z 01006KT M01/M02 A3028 RMK A01 T10131015  RH  100%=      5-min Rain = 0
KSP1 081320Z 01007KT M01/M02 A3028 RMK A01 T10131015  RH  100%=      5-min Rain = 0
KSP1 081325Z 01006KT M01/M02 A3029 RMK A01 T10141015  RH  100%=      5-min Rain = 0
KSP1 081330Z 01007KT M01/M02 A3029 RMK A01 T10141016  RH  100%=      5-min Rain = 0
KSP1 081335Z 01007KT M01/M02 A3029 RMK A01 T10141016  RH  100%=      5-min Rain = 0
KSP1 081340Z 01007KT M02/M02 A3029 RMK A01 T10151016  RH  100%=      5-min Rain = 0
KSP1 081345Z 01007KT M02/M02 A3029 RMK A01 T10151017  RH  100%=      5-min Rain = 0
KSP1 081350Z 02008KT M02/M02 A3029 RMK A01 T10151017  RH  100%=      5-min Rain = 0
KSP1 081355Z 01008KT M02/M02 A303 RMK A01 T10161017  RH  100%=      5-min Rain = 0
KSP1 081400Z 02007KT M02/M02 A303 RMK A01 T10161018  RH  100%=      5-min Rain = 0
KSP1 081405Z 02007KT M02/M02 A303 RMK A01 T10161018  RH  100%=      5-min Rain = 0
KSP1 081410Z 02007KT M02/M02 A303 RMK A01 T10161017  RH  100%=      5-min Rain = 0
KSP1 081415Z 02009KT M02/M02 A303 RMK A01 T10161017  RH  100%=      5-min Rain = 0
KSP1 081420Z 02007KT M02/M02 A303 RMK A01 T10161017  RH  100%=      5-min Rain = 0
KSP1 081425Z 01007KT M02/M02 A303 RMK A01 T10161017  RH  100%=      5-min Rain = 0
KSP1 081430Z 02007KT M02/M02 A303 RMK A01 T10161017  RH  100%=      5-min Rain = 0
KSP1 081435Z 02006KT M02/M02 A3031 RMK A01 T10161017  RH  100%=      5-min Rain = 0
KSP1 081440Z 02007KT M02/M02 A3031 RMK A01 T10161017  RH  100%=      5-min Rain = 0
KSP1 081445Z 01007KT M02/M02 A3031 RMK A01 T10161017  RH  100%=      5-min Rain = 0
KSP1 081450Z 01008KT M02/M02 A3031 RMK A01 T10161017  RH  100%=      5-min Rain = 0
KSP1 081455Z 01008KT M02/M02 A3032 RMK A01 T10161017  RH  100%=      5-min Rain = 0
KSP1 081500Z 02007KT M02/M02 A3032 RMK A01 T10161018  RH  100%=      5-min Rain = 0
KSP1 081505Z 02008KT M02/M02 A3032 RMK A01 T10161017  RH  100%=      5-min Rain = 0
KSP1 081510Z 01007KT M02/M02 A3032 RMK A01 T10151017  RH  100%=      5-min Rain = 0
KSP1 081515Z 02006KT M02/M02 A3032 RMK A01 T10151017  RH  100%=      5-min Rain = 0
KSP1 081520Z 01007KT M01/M02 A3032 RMK A01 T10141016  RH  100%=      5-min Rain = 0
KSP1 081525Z 01007KT M01/M02 A3032 RMK A01 T10141016  RH  100%=      5-min Rain = 0
KSP1 081530Z 02008KT M01/M02 A3032 RMK A01 T10141016  RH  100%=      5-min Rain = 0
KSP1 081535Z 02008KT M02/M02 A3033 RMK A01 T10151016  RH  100%=      5-min Rain = 0
KSP1 081540Z 02009KT M02/M02 A3033 RMK A01 T10151017  RH  100%=      5-min Rain = 0
KSP1 081545Z 02009KT M02/M02 A3033 RMK A01 T10151017  RH  100%=      5-min Rain = 0
KSP1 081550Z 02008KT M02/M02 A3033 RMK A01 T10151017  RH  100%=      5-min Rain = 0
KSP1 081555Z 02008KT M02/M02 A3033 RMK A01 T10151017  RH  100%=      5-min Rain = 0
KSP1 081600Z 02006KT M02/M02 A3033 RMK A01 T10151017  RH  100%=      5-min Rain = 0
KSP1 081605Z 01007KT M02/M02 A3033 RMK A01 T10151016  RH  100%=      5-min Rain = 0
KSP1 081610Z 01007KT M01/M02 A3033 RMK A01 T10141016  RH  100%=      5-min Rain = 0
KSP1 081615Z 01009KT M02/M02 A3034 RMK A01 T10151016  RH  100%=      5-min Rain = 0
KSP1 081620Z 02008KT M02/M02 A3034 RMK A01 T10151017  RH  100%=      5-min Rain = 0
KSP1 081625Z 02008KT M02/M02 A3034 RMK A01 T10151017  RH  100%=      5-min Rain = 0
KSP1 081630Z 01008KT M02/M02 A3034 RMK A01 T10151017  RH  100%=      5-min Rain = 0
KSP1 081635Z 02007KT M02/M02 A3034 RMK A01 T10151016  RH  100%=      5-min Rain = 0
KSP1 081640Z 01007KT M01/M02 A3034 RMK A01 T10141016  RH  100%=      5-min Rain = 0
KSP1 081645Z 02006KT M01/M02 A3034 RMK A01 T10141015  RH  100%=      5-min Rain = 0
KSP1 081650Z 03008KT M01/M02 A3034 RMK A01 T10131015  RH  100%=      5-min Rain = 0
KSP1 081655Z 02007KT M01/M02 A3034 RMK A01 T10131015  RH  100%=      5-min Rain = 0
KSP1 081700Z 02008G13KT M01/M02 A3034 RMK A01 T10131015  RH  100%=      5-min Rain = 0
KSP1 081705Z 02007KT M01/M02 A3034 RMK A01 T10131015  RH  100%=      5-min Rain = 0
KSP1 081710Z 02006KT M01/M01 A3034 RMK A01 T10121014  RH  100%=      5-min Rain = 0
KSP1 081715Z 02006KT M01/M01 A3034 RMK A01 T10111013  RH  100%=      5-min Rain = 0
KSP1 081720Z 02007KT M01/M01 A3034 RMK A01 T10111012  RH  100%=      5-min Rain = 0
KSP1 081725Z 01006KT M01/M01 A3034 RMK A01 T10101012  RH  100%=      5-min Rain = 0
KSP1 081730Z 01006KT M01/M01 A3034 RMK A01 T10091011  RH  100%=      5-min Rain = 0
KSP1 081735Z 01008KT M01/M01 A3033 RMK A01 T10091011  RH  100%=      5-min Rain = 0
KSP1 081740Z 01008KT M01/M01 A3033 RMK A01 T10101012  RH  100%=      5-min Rain = 0
KSP1 081745Z 01008KT M01/M01 A3033 RMK A01 T10101012  RH  100%=      5-min Rain = 0
KSP1 081750Z 01007KT M01/M01 A3033 RMK A01 T10101012  RH  100%=      5-min Rain = 0
KSP1 081755Z 00007KT M01/M01 A3033 RMK A01 T10091011  RH  100%=      5-min Rain = 0
KSP1 081800Z 01006KT M01/M01 A3032 RMK A01 T10081010  RH  100%=      5-min Rain = 0
KSP1 081805Z 01008KT M01/M01 A3032 RMK A01 T10071009  RH  100%=      5-min Rain = 0.01
KSP1 081810Z 01008KT M01/M01 A3032 RMK A01 T10071009  RH  099%=      5-min Rain = 0
KSP1 081815Z 01008KT M01/M01 A3032 RMK A01 T10071009  RH  099%=      5-min Rain = 0
KSP1 081820Z 01010KT M01/M01 A3032 RMK A01 T10071009  RH  099%=      5-min Rain = 0
KSP1 081825Z 01009KT M01/M01 A3032 RMK A01 T10081010  RH  099%=      5-min Rain = 0.01
KSP1 081830Z 01008KT M01/M01 A3031 RMK A01 T10081010  RH  099%=      5-min Rain = 0
KSP1 081835Z 00007KT M01/M01 A3031 RMK A01 T10081010  RH  099%=      5-min Rain = 0.01
KSP1 081840Z 00008KT M01/M01 A3031 RMK A01 T10081010  RH  099%=      5-min Rain = 0
KSP1 081845Z 36008KT M01/M01 A3031 RMK A01 T10091011  RH  099%=      5-min Rain = 0.01
KSP1 081850Z 36007KT M01/M01 A3031 RMK A01 T10101012  RH  099%=      5-min Rain = 0
KSP1 081855Z 35007KT M01/M01 A303 RMK A01 T10121014  RH  099%=      5-min Rain = 0.01
KSP1 081900Z 36007KT M01/M02 A303 RMK A01 T10121015  RH  099%=      5-min Rain = 0
KSP1 081905Z 36006KT M01/M02 A303 RMK A01 T10131016  RH  099%=      5-min Rain = 0.01
KSP1 081910Z 36007KT M01/M02 A3029 RMK A01 T10121015  RH  099%=      5-min Rain = 0
KSP1 081915Z 00008KT M01/M02 A3029 RMK A01 T10121015  RH  099%=      5-min Rain = 0.01
KSP1 081920Z 36007KT M01/M02 A3028 RMK A01 T10141017  RH  099%=      5-min Rain = 0.02
KSP1 081925Z 36006KT M01/M02 A3028 RMK A01 T10141017  RH  099%=      5-min Rain = 0.01
KSP1 081930Z 00006KT M01/M02 A3028 RMK A01 T10131016  RH  099%=      5-min Rain = 0.02
KSP1 081935Z 35007KT M01/M02 A3028 RMK A01 T10131016  RH  098%=      5-min Rain = 0.01
KSP1 081940Z 35007KT M01/M02 A3028 RMK A01 T10141017  RH  098%=      5-min Rain = 0.02
KSP1 081945Z 35007KT M02/M02 A3028 RMK A01 T10151018  RH  099%=      5-min Rain = 0.02
KSP1 081950Z 34006KT M01/M02 A3028 RMK A01 T10141017  RH  099%=      5-min Rain = 0.01
KSP1 081955Z 35007KT M01/M02 A3028 RMK A01 T10141017  RH  099%=      5-min Rain = 0.02
KSP1 082000Z 35007KT M01/M02 A3028 RMK A01 T10131016  RH  099%=      5-min Rain = 0.01
KSP1 082005Z 35005KT M01/M02 A3027 RMK A01 T10121015  RH  099%=      5-min Rain = 0.02
KSP1 082010Z 33004KT M01/M01 A3027 RMK A01 T10101013  RH  099%=      5-min Rain = 0.01
KSP1 082015Z 34005KT M01/M01 A3027 RMK A01 T10091011  RH  099%=      5-min Rain = 0.01
KSP1 082020Z 34006KT M01/M01 A3027 RMK A01 T10101013  RH  099%=      5-min Rain = 0.01
KSP1 082025Z 33006KT M01/M01 A3027 RMK A01 T10091012  RH  099%=      5-min Rain = 0.01
KSP1 082030Z 34005KT M01/M01 A3027 RMK A01 T10081011  RH  099%=      5-min Rain = 0.01
KSP1 082035Z 34006KT M01/M01 A3027 RMK A01 T10081011  RH  099%=      5-min Rain = 0.02
KSP1 082040Z 33005KT M01/M01 A3027 RMK A01 T10091012  RH  099%=      5-min Rain = 0.01
KSP1 082045Z 34006KT M01/M01 A3027 RMK A01 T10091012  RH  099%=      5-min Rain = 0.01
KSP1 082050Z 35006KT M01/M01 A3027 RMK A01 T10091012  RH  099%=      5-min Rain = 0.01
KSP1 082055Z 35006KT M01/M01 A3027 RMK A01 T10091012  RH  099%=      5-min Rain = 0.01
KSP1 082100Z 34006KT M01/M01 A3027 RMK A01 T10081011  RH  099%=      5-min Rain = 0.01
KSP1 082105Z 34007KT M01/M01 A3027 RMK A01 T10101013  RH  099%=      5-min Rain = 0
KSP1 082110Z 35005KT M01/M02 A3027 RMK A01 T10121016  RH  099%=      5-min Rain = 0
KSP1 082115Z 36004KT M01/M02 A3027 RMK A01 T10121015  RH  099%=      5-min Rain = 0.01
KSP1 082120Z 35003KT M01/M01 A3027 RMK A01 T10101014  RH  099%=      5-min Rain = 0.01
KSP1 082125Z 34003KT M01/M01 A3026 RMK A01 T10091012  RH  099%=      5-min Rain = 0
KSP1 082130Z 33004KT M01/M01 A3026 RMK A01 T10071011  RH  099%=      5-min Rain = 0.01
KSP1 082135Z 33003KT M01/M01 A3026 RMK A01 T10051009  RH  099%=      5-min Rain = 0
KSP1 082140Z 33003KT M00/M01 A3026 RMK A01 T10041007  RH  099%=      5-min Rain = 0
KSP1 082145Z 34002KT M00/M01 A3026 RMK A01 T10031006  RH  099%=      5-min Rain = 0
KSP1 082150Z 33003KT M00/M01 A3026 RMK A01 T10021005  RH  099%=      5-min Rain = 0
KSP1 082155Z 35002KT M00/M00 A3025 RMK A01 T10011004  RH  099%=      5-min Rain = 0
KSP1 082200Z 36003KT M00/M00 A3025 RMK A01 T10011004  RH  098%=      5-min Rain = 0
KSP1 082205Z 34003KT M00/M00 A3025 RMK A01 T10011004  RH  098%=      5-min Rain = 0
KSP1 082210Z 33003KT 00/00 A3026 RMK A01 T00-000-4  RH  098%=      5-min Rain = 0
KSP1 082215Z 34003KT 00/00 A3026 RMK A01 T000000-3  RH  098%=      5-min Rain = 0
KSP1 082220Z 34004KT 00/M00 A3026 RMK A01 T00011003  RH  098%=      5-min Rain = 0
KSP1 082225Z 34005KT 00/M00 A3026 RMK A01 T00011003  RH  098%=      5-min Rain = 0
KSP1 082230Z 34005KT 00/M00 A3026 RMK A01 T00011003  RH  098%=      5-min Rain = 0
KSP1 082235Z 34005KT 00/M00 A3026 RMK A01 T00011003  RH  098%=      5-min Rain = 0
KSP1 082240Z 34004KT 00/M00 A3026 RMK A01 T00011003  RH  098%=      5-min Rain = 0
KSP1 082245Z 34005KT 00/00 A3026 RMK A01 T000000-4  RH  098%=      5-min Rain = 0
KSP1 082250Z 34006KT M00/M01 A3026 RMK A01 T10011005  RH  098%=      5-min Rain = 0
KSP1 082255Z 34005KT M00/M01 A3027 RMK A01 T10011005  RH  098%=      5-min Rain = 0
KSP1 082300Z 34005KT M00/M01 A3027 RMK A01 T10011005  RH  098%=      5-min Rain = 0
KSP1 082305Z 34003KT M00/M01 A3027 RMK A01 T10011005  RH  098%=      5-min Rain = 0
KSP1 082310Z 33003KT 00/01 A3027 RMK A01 T00-000-5  RH  098%=      5-min Rain = 0
KSP1 082315Z 33003KT 00/00 A3027 RMK A01 T000000-4  RH  098%=      5-min Rain = 0
KSP1 082320Z 32003KT 00/M00 A3027 RMK A01 T00011004  RH  098%=      5-min Rain = 0
KSP1 082325Z 31003KT 00/M00 A3027 RMK A01 T00011004  RH  098%=      5-min Rain = 0
KSP1 082330Z 32004KT 00/M00 A3027 RMK A01 T00011004  RH  098%=      5-min Rain = 0
KSP1 082335Z 32003KT 00/01 A3027 RMK A01 T00-000-5  RH  098%=      5-min Rain = 0
KSP1 082340Z 31003KT M00/M01 A3027 RMK A01 T10011006  RH  098%=      5-min Rain = 0
KSP1 082345Z 31003KT M00/M01 A3027 RMK A01 T10021007  RH  098%=      5-min Rain = 0
KSP1 082350Z 31003KT M00/M01 A3027 RMK A01 T10031008  RH  098%=      5-min Rain = 0
KSP1 082355Z 32004KT M01/M01 A3027 RMK A01 T10051010  RH  097%=      5-min Rain = 0
KSP1 090000Z 32005KT M01/M01 A3027 RMK A01 T10071012  RH  097%=      5-min Rain = 0
KSP1 090005Z 32006KT M01/M01 A3027 RMK A01 T10091014  RH  097%=      5-min Rain = 0
KSP1 090010Z 33005KT M01/M02 A3026 RMK A01 T10091015  RH  097%=      5-min Rain = 0
KSP1 090015Z 32005KT M01/M02 A3026 RMK A01 T10091016  RH  096%=      5-min Rain = 0
KSP1 090020Z 32005KT M01/M02 A3026 RMK A01 T10121019  RH  095%=      5-min Rain = 0
KSP1 090025Z 32005KT M01/M02 A3026 RMK A01 T10141021  RH  095%=      5-min Rain = 0
KSP1 090030Z 32005KT M02/M02 A3026 RMK A01 T10161023  RH  095%=      5-min Rain = 0
KSP1 090035Z 32006KT M02/M03 A3027 RMK A01 T10171025  RH  095%=      5-min Rain = 0
KSP1 090040Z 32006KT M02/M03 A3027 RMK A01 T10201028  RH  095%=      5-min Rain = 0
KSP1 090045Z 32006KT M02/M03 A3027 RMK A01 T10221030  RH  095%=      5-min Rain = 0
KSP1 090050Z 31006KT M02/M03 A3027 RMK A01 T10231031  RH  095%=      5-min Rain = 0
KSP1 090055Z 31006KT M02/M03 A3027 RMK A01 T10221029  RH  096%=      5-min Rain = 0
KSP1 090100Z 31005KT M02/M03 A3028 RMK A01 T10221029  RH  095%=      5-min Rain = 0
KSP1 090105Z 30004KT M02/M03 A3028 RMK A01 T10231031  RH  095%=      5-min Rain = 0
KSP1 090110Z 30005KT M03/M03 A3028 RMK A01 T10261034  RH  095%=      5-min Rain = 0
KSP1 090115Z 30004KT M03/M04 A3028 RMK A01 T10281035  RH  095%=      5-min Rain = 0
KSP1 090120Z 30003KT M03/M04 A3028 RMK A01 T10291036  RH  096%=      5-min Rain = 0
KSP1 090125Z 31003KT M03/M04 A3028 RMK A01 T10311038  RH  096%=      5-min Rain = 0
KSP1 090130Z 32003KT M03/M04 A3028 RMK A01 T10311037  RH  096%=      5-min Rain = 0
KSP1 090135Z 32003KT M03/M04 A3029 RMK A01 T10311037  RH  096%=      5-min Rain = 0
KSP1 090140Z 32003KT M03/M04 A3029 RMK A01 T10321038  RH  096%=      5-min Rain = 0
KSP1 090145Z 32003KT M03/M04 A3028 RMK A01 T10321038  RH  096%=      5-min Rain = 0
KSP1 090150Z 33003KT M03/M04 A3028 RMK A01 T10331039  RH  096%=      5-min Rain = 0
KSP1 090155Z 34002KT M04/M04 A3028 RMK A01 T10351041  RH  096%=      5-min Rain = 0
KSP1 090200Z 35001KT M04/M04 A3028 RMK A01 T10371043  RH  096%=      5-min Rain = 0
KSP1 090205Z 35001KT M04/M04 A3028 RMK A01 T10381044  RH  096%=      5-min Rain = 0
KSP1 090210Z 03001KT M04/M04 A3028 RMK A01 T10381043  RH  097%=      5-min Rain = 0
KSP1 090215Z 36002KT M04/M04 A3028 RMK A01 T10391044  RH  097%=      5-min Rain = 0
KSP1 090220Z 33003KT M04/M05 A3029 RMK A01 T10401045  RH  097%=      5-min Rain = 0
KSP1 090225Z 33004KT M04/M05 A3029 RMK A01 T10421048  RH  096%=      5-min Rain = 0
KSP1 090230Z 33004KT M05/M05 A3029 RMK A01 T10451050  RH  097%=      5-min Rain = 0
KSP1 090235Z 32006KT M04/M05 A3028 RMK A01 T10441049  RH  097%=      5-min Rain = 0
KSP1 090240Z 33006KT M04/M05 A3029 RMK A01 T10431048  RH  097%=      5-min Rain = 0
KSP1 090245Z 33006KT M04/M05 A3029 RMK A01 T10431047  RH  097%=      5-min Rain = 0
KSP1 090250Z 33006KT M04/M05 A3029 RMK A01 T10421046  RH  097%=      5-min Rain = 0
KSP1 090255Z 33006KT M04/M05 A3029 RMK A01 T10421047  RH  097%=      5-min Rain = 0
KSP1 090300Z 32006KT M04/M05 A3029 RMK A01 T10421046  RH  097%=      5-min Rain = 0
KSP1 090305Z 32005KT M04/M05 A3029 RMK A01 T10411046  RH  097%=      5-min Rain = 0
KSP1 090310Z 32005KT M04/M05 A3029 RMK A01 T10421048  RH  096%=      5-min Rain = 0
KSP1 090315Z 32004KT M04/M05 A3029 RMK A01 T10441050  RH  096%=      5-min Rain = 0
KSP1 090320Z 31002KT M04/M05 A3029 RMK A01 T10441050  RH  097%=      5-min Rain = 0
KSP1 090325Z 32002KT M05/M05 A3029 RMK A01 T10451050  RH  096%=      5-min Rain = 0
KSP1 090330Z 31003KT M05/M05 A3029 RMK A01 T10451050  RH  097%=      5-min Rain = 0
KSP1 090335Z 32004KT M05/M05 A3029 RMK A01 T10461051  RH  096%=      5-min Rain = 0
KSP1 090340Z 32005KT M05/M05 A3029 RMK A01 T10471052  RH  096%=      5-min Rain = 0
KSP1 090345Z 34005KT M05/M05 A3029 RMK A01 T10491054  RH  096%=      5-min Rain = 0
KSP1 090350Z 34005KT M05/M05 A3029 RMK A01 T10491054  RH  096%=      5-min Rain = 0
KSP1 090355Z 33006KT M05/M06 A303 RMK A01 T10521058  RH  096%=      5-min Rain = 0
KSP1 090400Z 33006KT M05/M06 A303 RMK A01 T10511055  RH  097%=      5-min Rain = 0
KSP1 090405Z 33006KT M05/M05 A303 RMK A01 T10491054  RH  097%=      5-min Rain = 0
KSP1 090410Z 33006KT M05/M06 A303 RMK A01 T10511057  RH  096%=      5-min Rain = 0
KSP1 090415Z 34006KT M05/M06 A303 RMK A01 T10541060  RH  096%=      5-min Rain = 0
KSP1 090420Z 34006KT M05/M06 A303 RMK A01 T10541060  RH  096%=      5-min Rain = 0
KSP1 090425Z 33006KT M05/M06 A303 RMK A01 T10541059  RH  096%=      5-min Rain = 0
KSP1 090430Z 33006KT M05/M06 A303 RMK A01 T10541059  RH  096%=      5-min Rain = 0
KSP1 090435Z 33006KT M06/M06 A303 RMK A01 T10561062  RH  096%=      5-min Rain = 0
KSP1 090440Z 33006KT M06/M06 A303 RMK A01 T10561061  RH  096%=      5-min Rain = 0
KSP1 090445Z 33006KT M06/M06 A3031 RMK A01 T10551060  RH  096%=      5-min Rain = 0
KSP1 090450Z 33005KT M06/M06 A3031 RMK A01 T10551061  RH  096%=      5-min Rain = 0
KSP1 090455Z 33005KT M06/M06 A3031 RMK A01 T10581064  RH  096%=      5-min Rain = 0
KSP1 090500Z 32004KT M06/M07 A3031 RMK A01 T10601065  RH  096%=      5-min Rain = 0
KSP1 090505Z 32004KT M06/M07 A3031 RMK A01 T10601065  RH  096%=      5-min Rain = 0
KSP1 090510Z 32004KT M06/M07 A3031 RMK A01 T10611067  RH  096%=      5-min Rain = 0
KSP1 090515Z 33004KT M06/M07 A3031 RMK A01 T10621067  RH  096%=      5-min Rain = 0
KSP1 090520Z 33004KT M06/M07 A3031 RMK A01 T10641070  RH  096%=      5-min Rain = 0
KSP1 090525Z 33005KT M06/M07 A3031 RMK A01 T10631068  RH  096%=      5-min Rain = 0
KSP1 090530Z 33006KT M06/M07 A3031 RMK A01 T10631068  RH  096%=      5-min Rain = 0
KSP1 090535Z 33006KT M06/M07 A3031 RMK A01 T10611066  RH  096%=      5-min Rain = 0
KSP1 090540Z 33006KT M06/M07 A3031 RMK A01 T10611066  RH  096%=      5-min Rain = 0
KSP1 090545Z 33006KT M06/M06 A3031 RMK A01 T10591064  RH  097%=      5-min Rain = 0
KSP1 090550Z 34006KT M06/M07 A3031 RMK A01 T10591065  RH  096%=      5-min Rain = 0
KSP1 090555Z 35007KT M06/M06 A3031 RMK A01 T10591064  RH  096%=      5-min Rain = 0

Page generated in 0.0307 seconds.